Minhang, China
Current Conditions -  °F | °C
As of 12:30 PM on Friday 19 Dec 2014 (Local Time) from ZSSS Reporting Station
Broken Clouds Broken Clouds  
Wind Chill: 52°   Ceiling: 4000
Heat Index: 52°   Visibility: 6mi
Dew Point: 39°   Wind: 4mph
Humidity: 62%   Direction: 250°WSW
Pressure: 30.27"   Gusts: NA
Location:  31.01°N, 121.41°E
Report Text: ZSSS 190430Z 25002MPS 210V280 9999 BKN040 11/04 Q1025 NOSIG
Loading
Personal Weather Stations






























Interactive Weather Map New forecast layout! Learn more

10-Day Weather Forecast

Advertisements
Track Severe Weather on mobile